KEKO/EKO METAR and TAF weather

Enter ICAO airport designator
Station Type Date Time Source
KEKO METAR 2021/09/16 20:56 UTC NOAA

KEKO 162056Z AUTO VRB05KT 10SM CLR 28/M01 A2996 RMK AO2 SLP096 T02781006 58012


Station Type Date Time Source
KEKO Decoded METAR 2021/09/16 20:56 UTC NOAA

ELKO REGIONAL AIRPORT, NV, United States (KEKO) 40-50N 115-47W 1547M
Sep 16, 2021 - 04:56 PM EDT / 2021.09.16 2056 UTC
Wind: Variable at 6 MPH (5 KT):0
Visibility: 10 mile(s):0
Sky conditions: clear
Temperature: 82.0 F (27.8 C)
Dew Point: 30.9 F (-0.6 C)
Relative Humidity: 15%
Pressure (altimeter): 29.96 in. Hg (1014 hPa)
Pressure tendency: 0.04 inches (1.2 hPa) lower than three hours ago
ob: KEKO 162056Z AUTO VRB05KT 10SM CLR 28/M01 A2996 RMK AO2 SLP096 T02781006 58012
cycle: 21

Station Type Date Time Source
KEKO TAF 2021/09/16 18:54 UTC NOAA

TAF KEKO 161752Z 1618/1718 VRB04KT P6SM FEW120
FM161900 28009G17KT P6SM FEW120
FM170300 03007KT P6SM FEW120
FM170800 VRB04KT P6SM FEW250

Example: see airport list